In Rescue
 
Open Full Screen Window  High Contrast Mode
September 19, 2019 3:48 PM CDT
Weather Information
Wind Direction
  ---
Wind Speed
  00 kt (0 mph)
Wind Gust
  00 kt (0 mph)
Altimeter
30.00 in
Visibility
10 SM
Temperature
28° C
82° F
Dewpoint
18° C
64° F
Humidity
55%
1hr Rain Fall
00.00 in.
24hr Rain Fall
00.00 in.
Sky Condition
Missing
VFR

METAR KMGG 192048Z AUTO 00000KT 10SM 28/18 A3000 RMK AO2 T02770183

FAA Disclaimer: The data displayed is for advisory purposes only and is not to be used for flight planning or operations.
Missing Cloud Data